createdAt,value
2023-02-22T00:02:14.072Z,5.12
2023-02-22T00:04:59.594Z,5.24
2023-02-22T00:07:44.773Z,5.31
2023-02-22T00:10:30.234Z,4.85
2023-02-22T00:13:16.044Z,5.98
2023-02-22T00:16:01.804Z,6.11
2023-02-22T00:18:50.358Z,4.92
2023-02-22T00:21:37.317Z,4.88
2023-02-22T00:24:25.555Z,5.67
2023-02-22T00:27:11.404Z,4.92
2023-02-22T00:29:56.825Z,4.85
2023-02-22T00:32:42.975Z,6.04
2023-02-22T00:35:30.809Z,5.83
2023-02-22T00:38:18.821Z,5.12
2023-02-22T00:41:04.861Z,5.64
2023-02-22T00:43:50.070Z,6.03
2023-02-22T00:46:35.638Z,5.32
2023-02-22T00:49:23.938Z,6.07
2023-02-22T00:52:09.610Z,6.03
2023-02-22T00:54:57.838Z,6.04
2023-02-22T00:57:43.388Z,5.80
2023-02-22T01:00:31.779Z,5.66
2023-02-22T01:03:20.640Z,5.78
2023-02-22T01:06:07.160Z,5.93
2023-02-22T01:08:52.647Z,5.77
2023-02-22T01:11:38.126Z,5.95
2023-02-22T01:14:26.635Z,5.34
2023-02-22T01:17:11.932Z,4.81
2023-02-22T01:19:57.542Z,5.82
2023-02-22T01:22:45.908Z,4.93
2023-02-22T01:25:32.265Z,5.70
2023-02-22T01:28:21.843Z,5.92
2023-02-22T01:31:10.869Z,5.90
2023-02-22T01:33:56.403Z,5.87
2023-02-22T01:36:42.804Z,4.49
2023-02-22T01:39:28.241Z,5.71
2023-02-22T01:42:13.445Z,5.59
2023-02-22T01:45:30.025Z,5.67
2023-02-22T01:48:53.312Z,5.63
2023-02-22T01:51:46.483Z,4.96
2023-02-22T01:54:37.844Z,5.39
2023-02-22T01:57:32.632Z,5.62
2023-02-22T02:00:21.395Z,5.61
2023-02-22T02:03:15.050Z,5.60
2023-02-22T02:06:04.301Z,5.63
2023-02-22T02:09:04.762Z,5.67
2023-02-22T02:11:51.068Z,5.42
2023-02-22T02:14:42.469Z,5.50
2023-02-22T02:17:30.899Z,5.58
2023-02-22T02:20:59.197Z,5.67
2023-02-22T02:24:20.733Z,5.58
2023-02-22T02:27:12.520Z,5.69
2023-02-22T02:30:28.887Z,5.71
2023-02-22T02:33:29.801Z,4.87
2023-02-22T02:36:34.467Z,5.57
2023-02-22T02:39:28.656Z,5.72
2023-02-22T02:42:22.174Z,4.44
2023-02-22T02:45:13.470Z,5.68
2023-02-22T02:48:01.003Z,4.70
2023-02-22T02:50:49.632Z,4.43
2023-02-22T02:53:39.536Z,5.60
2023-02-22T02:56:25.662Z,5.67
2023-02-22T02:59:30.181Z,5.68
2023-02-22T03:02:24.984Z,5.67
2023-02-22T03:05:13.490Z,5.57
2023-02-22T03:08:18.052Z,5.45
2023-02-22T03:11:15.192Z,5.24
2023-02-22T03:14:18.493Z,5.07
2023-02-22T03:17:22.813Z,4.89
2023-02-22T03:20:16.873Z,4.61
2023-02-22T03:23:13.779Z,3.48
2023-02-22T03:26:09.719Z,4.53
2023-02-22T03:28:58.720Z,3.76
2023-02-22T03:31:53.335Z,3.61
2023-02-22T03:34:53.017Z,4.47
2023-02-22T03:37:48.806Z,3.31
2023-02-22T03:40:43.513Z,4.57
2023-02-22T03:43:37.968Z,3.26
2023-02-22T03:46:30.151Z,4.56
2023-02-22T03:49:30.189Z,4.51
2023-02-22T03:52:16.058Z,4.43
2023-02-22T03:55:03.012Z,3.59
2023-02-22T03:57:51.800Z,4.53
2023-02-22T04:00:37.372Z,4.44
2023-02-22T04:03:23.446Z,3.40
2023-02-22T04:06:10.437Z,4.67
2023-02-22T04:08:56.337Z,4.69
2023-02-22T04:11:42.052Z,4.53
2023-02-22T04:14:30.549Z,4.69
2023-02-22T04:17:19.493Z,3.48
2023-02-22T04:20:07.215Z,4.69
2023-02-22T04:23:18.663Z,4.59
2023-02-22T04:26:03.962Z,3.76
2023-02-22T04:28:50.132Z,4.31
2023-02-22T04:31:38.083Z,4.59
2023-02-22T04:34:24.556Z,4.06
2023-02-22T04:37:10.663Z,4.53
2023-02-22T04:39:56.132Z,4.55
2023-02-22T04:42:41.573Z,4.50
2023-02-22T04:45:27.403Z,3.40
2023-02-22T04:48:14.107Z,4.61
2023-02-22T04:50:59.976Z,3.69
2023-02-22T04:53:48.978Z,4.33
2023-02-22T04:56:34.668Z,4.55
2023-02-22T04:59:20.159Z,3.34
2023-02-22T05:02:12.328Z,4.55
2023-02-22T05:04:57.896Z,4.45
2023-02-22T05:07:43.149Z,4.32
2023-02-22T05:10:29.658Z,3.54
2023-02-22T05:13:15.210Z,3.20
2023-02-22T05:16:04.145Z,4.45
2023-02-22T05:18:49.912Z,4.29
2023-02-22T05:21:35.462Z,4.41
2023-02-22T05:24:20.867Z,4.12
2023-02-22T05:27:06.665Z,3.11
2023-02-22T05:29:52.439Z,4.29
2023-02-22T05:32:38.249Z,4.29
2023-02-22T05:35:23.711Z,3.00
2023-02-22T05:38:14.980Z,4.26
2023-02-22T05:41:01.033Z,3.97
2023-02-22T05:43:46.583Z,3.38
2023-02-22T05:46:32.145Z,4.20
2023-02-22T05:49:17.760Z,4.08
2023-02-22T05:52:03.090Z,4.28
2023-02-22T05:54:48.448Z,4.13
2023-02-22T05:57:34.850Z,4.28
2023-02-22T06:00:31.263Z,3.23
2023-02-22T06:03:17.369Z,4.26
2023-02-22T06:06:02.944Z,4.42
2023-02-22T06:08:48.392Z,4.28
2023-02-22T06:11:33.779Z,4.38
2023-02-22T06:14:26.652Z,4.30
2023-02-22T06:17:15.762Z,3.14
2023-02-22T06:20:02.880Z,4.32
2023-02-22T06:22:55.032Z,4.07
2023-02-22T06:25:40.275Z,4.17
2023-02-22T06:28:26.444Z,4.22
2023-02-22T06:31:12.612Z,4.31
2023-02-22T06:33:58.906Z,4.29
2023-02-22T06:36:47.827Z,4.32
2023-02-22T06:39:33.201Z,3.17
2023-02-22T06:42:18.874Z,3.44
2023-02-22T06:45:08.116Z,4.15
2023-02-22T06:47:53.843Z,4.31
2023-02-22T06:50:39.921Z,4.23
2023-02-22T06:53:25.368Z,4.31
2023-02-22T06:56:14.082Z,3.08
2023-02-22T06:59:01.599Z,4.12
2023-02-22T07:01:47.993Z,4.18
2023-02-22T07:04:37.279Z,4.03
2023-02-22T07:07:23.724Z,3.83
2023-02-22T07:10:20.764Z,3.30
2023-02-22T07:13:08.962Z,4.08
2023-02-22T07:15:54.585Z,3.85
2023-02-22T07:18:40.918Z,4.16
2023-02-22T07:21:30.966Z,4.23
2023-02-22T07:24:16.696Z,4.23
2023-02-22T07:27:02.778Z,2.96
2023-02-22T07:29:48.172Z,4.15
2023-02-22T07:32:33.690Z,4.04
2023-02-22T07:35:25.355Z,4.25
2023-02-22T07:38:11.193Z,4.17
2023-02-22T07:40:57.835Z,3.75
2023-02-22T07:43:43.572Z,3.42
2023-02-22T07:46:29.857Z,4.17
2023-02-22T07:49:16.006Z,3.13
2023-02-22T07:52:02.093Z,4.26
2023-02-22T07:54:49.369Z,3.05
2023-02-22T07:57:35.288Z,3.05
2023-02-22T08:00:35.745Z,4.33
2023-02-22T08:03:28.972Z,4.42
2023-02-22T08:06:14.741Z,3.22
2023-02-22T08:09:00.543Z,3.37
2023-02-22T08:11:46.411Z,4.60
2023-02-22T08:14:32.014Z,4.45
2023-02-22T08:17:17.515Z,4.53
2023-02-22T08:20:03.310Z,4.53
2023-02-22T08:22:49.344Z,4.58
2023-02-22T08:25:35.400Z,4.55
2023-02-22T08:28:23.776Z,3.59
2023-02-22T08:31:09.408Z,4.74
2023-02-22T08:33:55.026Z,4.78
2023-02-22T08:36:42.505Z,4.50
2023-02-22T08:39:27.901Z,3.94
2023-02-22T08:42:14.259Z,4.80
2023-02-22T08:44:59.712Z,4.84
2023-02-22T08:47:47.191Z,3.67
2023-02-22T08:50:34.385Z,4.81
2023-02-22T08:53:20.440Z,4.79
2023-02-22T08:56:06.056Z,4.82
2023-02-22T08:58:51.794Z,4.83
2023-02-22T09:01:37.849Z,5.03
2023-02-22T09:04:23.820Z,5.05
2023-02-22T09:07:09.523Z,5.18
2023-02-22T09:09:55.560Z,5.23
2023-02-22T09:12:42.839Z,5.30
2023-02-22T09:15:29.895Z,5.31
2023-02-22T09:18:15.111Z,5.36
2023-02-22T09:21:00.504Z,5.21
2023-02-22T09:23:48.613Z,5.33
2023-02-22T09:26:42.749Z,5.27
2023-02-22T09:29:28.940Z,5.11
2023-02-22T09:32:18.065Z,5.13
2023-02-22T09:35:04.047Z,4.42
2023-02-22T09:37:49.923Z,3.77
2023-02-22T09:40:45.433Z,5.11
2023-02-22T09:43:40.689Z,4.95
2023-02-22T09:46:37.914Z,4.24
2023-02-22T09:49:39.873Z,4.92
2023-02-22T09:52:32.812Z,4.59
2023-02-22T09:55:39.594Z,3.51
2023-02-22T09:58:33.649Z,4.60
2023-02-22T10:01:27.217Z,4.73
2023-02-22T10:04:18.873Z,4.77
2023-02-22T10:07:15.743Z,4.74
2023-02-22T10:10:06.501Z,4.81
2023-02-22T10:13:05.691Z,3.78
2023-02-22T10:16:00.928Z,4.74
2023-02-22T10:19:11.120Z,4.66
2023-02-22T10:22:22.542Z,4.81
2023-02-22T10:25:23.816Z,4.88
2023-02-22T10:28:13.498Z,4.84
2023-02-22T10:31:07.348Z,4.75
2023-02-22T10:34:00.935Z,4.95
2023-02-22T10:36:49.976Z,4.98
2023-02-22T10:39:38.978Z,4.99
2023-02-22T10:42:28.497Z,5.07
2023-02-22T10:45:35.925Z,5.07
2023-02-22T10:48:24.294Z,5.08
2023-02-22T10:51:10.488Z,5.04
2023-02-22T10:54:08.959Z,5.14
2023-02-22T10:56:56.958Z,5.00
2023-02-22T10:59:42.549Z,5.04
2023-02-22T11:02:31.590Z,4.94
2023-02-22T11:05:38.728Z,5.27
2023-02-22T11:08:30.770Z,4.10
2023-02-22T11:11:25.975Z,5.31
2023-02-22T11:14:24.582Z,5.40
2023-02-22T11:17:18.125Z,5.39
2023-02-22T11:20:04.018Z,5.25
2023-02-22T11:22:54.595Z,5.37
2023-02-22T11:25:42.641Z,5.32
2023-02-22T11:28:33.350Z,5.31
2023-02-22T11:31:25.825Z,4.56
2023-02-22T11:34:45.763Z,4.59
2023-02-22T11:37:39.418Z,5.44
2023-02-22T11:40:25.279Z,4.76
2023-02-22T11:43:19.294Z,5.78
2023-02-22T11:46:12.201Z,5.66
2023-02-22T11:49:09.105Z,5.94
2023-02-22T11:52:29.992Z,6.00
2023-02-22T11:55:41.882Z,4.70
2023-02-22T11:58:41.588Z,5.82
2023-02-22T12:01:32.674Z,5.87
2023-02-22T12:04:50.338Z,5.91
2023-02-22T12:08:20.050Z,5.96
2023-02-22T12:11:22.210Z,6.03
2023-02-22T12:14:35.970Z,6.08
2023-02-22T12:17:59.776Z,6.08
2023-02-22T12:20:54.987Z,5.23
2023-02-22T12:23:40.978Z,6.11
2023-02-22T12:26:34.347Z,4.95
2023-02-22T12:30:13.020Z,6.18
2023-02-22T12:33:06.151Z,6.18
2023-02-22T12:35:55.866Z,6.17
2023-02-22T12:38:48.495Z,5.93
2023-02-22T12:41:42.515Z,6.15
2023-02-22T12:44:38.616Z,6.20
2023-02-22T12:47:37.799Z,6.07
2023-02-22T12:50:28.584Z,6.24
2023-02-22T12:53:25.771Z,6.27
2023-02-22T12:56:28.289Z,6.27
2023-02-22T12:59:32.277Z,5.06
2023-02-22T13:02:34.994Z,5.04
2023-02-22T13:05:21.477Z,6.10
2023-02-22T13:08:35.342Z,6.07
2023-02-22T13:11:26.716Z,6.05
2023-02-22T13:14:33.800Z,6.01
2023-02-22T13:17:31.444Z,5.99
2023-02-22T13:20:18.431Z,6.01
2023-02-22T13:23:14.194Z,6.00
2023-02-22T13:26:09.098Z,5.92
2023-02-22T13:29:03.030Z,5.64
2023-02-22T13:32:02.809Z,5.59
2023-02-22T13:35:06.614Z,5.68
2023-02-22T13:38:01.617Z,5.62
2023-02-22T13:40:53.752Z,5.58
2023-02-22T13:44:16.954Z,5.55
2023-02-22T13:47:27.634Z,5.52
2023-02-22T13:50:28.460Z,5.50
2023-02-22T13:53:33.016Z,4.23
2023-02-22T13:56:20.227Z,5.48
2023-02-22T13:59:06.051Z,5.37
2023-02-22T14:01:53.608Z,4.53
2023-02-22T14:04:41.268Z,5.64
2023-02-22T14:07:29.729Z,5.64
2023-02-22T14:10:49.039Z,5.62
2023-02-22T14:13:57.288Z,5.62
2023-02-22T14:16:43.591Z,4.69
2023-02-22T14:19:29.728Z,5.56
2023-02-22T14:22:27.870Z,4.29
2023-02-22T14:25:28.685Z,5.57
2023-02-22T14:28:35.673Z,5.46
2023-02-22T14:31:37.914Z,5.44
2023-02-22T14:35:14.245Z,5.44
2023-02-22T14:38:18.257Z,4.42
2023-02-22T14:41:05.329Z,5.36
2023-02-22T14:43:53.545Z,4.55
2023-02-22T14:46:42.713Z,4.33
2023-02-22T14:49:32.014Z,5.02
2023-02-22T14:52:39.610Z,4.59
2023-02-22T14:55:26.572Z,4.26
2023-02-22T14:58:12.044Z,5.28
2023-02-22T15:00:59.041Z,5.11
2023-02-22T15:03:51.357Z,5.08
2023-02-22T15:06:39.431Z,4.32
2023-02-22T15:09:34.693Z,4.12
2023-02-22T15:12:30.049Z,5.34
2023-02-22T15:15:25.003Z,4.16
2023-02-22T15:18:30.111Z,5.37
2023-02-22T15:21:20.997Z,5.22
2023-02-22T15:24:10.471Z,5.15
2023-02-22T15:27:05.856Z,4.82
2023-02-22T15:29:59.306Z,4.05
2023-02-22T15:33:01.152Z,4.99
2023-02-22T15:35:55.268Z,3.99
2023-02-22T15:38:40.588Z,5.00
2023-02-22T15:41:38.545Z,4.74
2023-02-22T15:44:24.338Z,4.74
2023-02-22T15:47:32.249Z,4.88
2023-02-22T15:50:23.843Z,4.94
2023-02-22T15:53:27.060Z,4.76
2023-02-22T15:56:16.922Z,4.83
2023-02-22T15:59:14.479Z,4.76
2023-02-22T16:02:00.608Z,4.89
2023-02-22T16:04:59.045Z,4.73
2023-02-22T16:07:50.938Z,4.91
2023-02-22T16:10:39.427Z,3.86
2023-02-22T16:13:32.867Z,4.89
2023-02-22T16:16:21.439Z,4.91
2023-02-22T16:19:42.647Z,4.85
2023-02-22T16:22:35.007Z,4.69
2023-02-22T16:25:24.927Z,4.86
2023-02-22T16:28:35.611Z,3.89
2023-02-22T16:31:25.275Z,3.64
2023-02-22T16:34:10.994Z,3.68
2023-02-22T16:36:56.878Z,3.53
2023-02-22T16:39:45.607Z,3.86
2023-02-22T16:42:32.474Z,4.59
2023-02-22T16:45:19.477Z,4.43
2023-02-22T16:48:18.987Z,3.32
2023-02-22T16:51:20.439Z,4.53
2023-02-22T16:54:13.000Z,4.33
2023-02-22T16:57:02.317Z,4.53
2023-02-22T16:59:52.632Z,4.37
2023-02-22T17:02:39.839Z,4.44
2023-02-22T17:05:30.226Z,3.19
2023-02-22T17:08:17.089Z,3.11
2023-02-22T17:11:04.378Z,4.40
2023-02-22T17:13:51.766Z,4.25
2023-02-22T17:16:37.121Z,4.39
2023-02-22T17:19:24.391Z,3.44
2023-02-22T17:22:21.765Z,4.45
2023-02-22T17:25:23.071Z,4.45
2023-02-22T17:28:10.174Z,4.45
2023-02-22T17:31:01.463Z,3.86
2023-02-22T17:33:48.078Z,4.35
2023-02-22T17:36:36.523Z,4.24
2023-02-22T17:39:24.678Z,4.24
2023-02-22T17:42:10.318Z,4.33
2023-02-22T17:44:56.261Z,4.27
2023-02-22T17:47:46.632Z,4.27
2023-02-22T17:50:32.387Z,4.25
2023-02-22T17:53:25.981Z,4.23
2023-02-22T17:56:18.472Z,4.34
2023-02-22T17:59:03.958Z,4.38
2023-02-22T18:01:52.913Z,4.40
2023-02-22T18:04:40.395Z,4.45
2023-02-22T18:07:26.379Z,4.50
2023-02-22T18:10:13.178Z,4.29
2023-02-22T18:13:02.200Z,4.46
2023-02-22T18:15:48.583Z,4.08
2023-02-22T18:18:34.547Z,4.19
2023-02-22T18:21:22.069Z,4.27
2023-02-22T18:24:11.247Z,4.05
2023-02-22T18:26:57.598Z,4.16
2023-02-22T18:29:43.422Z,4.02
2023-02-22T18:32:32.223Z,2.97
2023-02-22T18:35:18.446Z,4.18
2023-02-22T18:38:05.105Z,4.28
2023-02-22T18:41:05.031Z,4.37
2023-02-22T18:43:54.050Z,4.39
2023-02-22T18:46:40.230Z,4.42
2023-02-22T18:49:27.128Z,4.17
2023-02-22T18:52:13.083Z,4.36
2023-02-22T18:55:00.015Z,4.31
2023-02-22T18:57:47.117Z,4.08
2023-02-22T19:00:36.337Z,4.32
2023-02-22T19:03:24.951Z,4.34
2023-02-22T19:06:13.157Z,3.04
2023-02-22T19:09:01.937Z,4.18
2023-02-22T19:11:50.444Z,3.63
2023-02-22T19:14:35.949Z,4.20
2023-02-22T19:17:22.374Z,3.22
2023-02-22T19:20:10.682Z,4.27
2023-02-22T19:22:56.309Z,4.25
2023-02-22T19:25:42.136Z,4.28
2023-02-22T19:28:34.040Z,2.92
2023-02-22T19:31:31.238Z,2.79
2023-02-22T19:34:19.842Z,3.09
2023-02-22T19:37:06.005Z,3.94
2023-02-22T19:39:52.290Z,4.04
2023-02-22T19:42:38.038Z,4.02
2023-02-22T19:45:24.914Z,3.98
2023-02-22T19:48:13.075Z,4.00
2023-02-22T19:51:11.317Z,3.94
2023-02-22T19:53:59.836Z,3.98
2023-02-22T19:56:51.610Z,3.82
2023-02-22T19:59:37.909Z,3.94
2023-02-22T20:02:27.249Z,3.85
2023-02-22T20:05:16.405Z,3.87
2023-02-22T20:08:02.038Z,3.83
2023-02-22T20:10:47.843Z,3.79
2023-02-22T20:13:34.230Z,2.69
2023-02-22T20:16:19.610Z,3.65
2023-02-22T20:19:05.341Z,3.63
2023-02-22T20:21:52.508Z,2.32
2023-02-22T20:24:38.473Z,3.62
2023-02-22T20:27:24.622Z,3.61
2023-02-22T20:30:11.145Z,3.35
2023-02-22T20:32:56.781Z,2.43
2023-02-22T20:35:42.538Z,3.51
2023-02-22T20:38:27.937Z,3.48
2023-02-22T20:41:17.221Z,3.51
2023-02-22T20:44:07.081Z,3.52
2023-02-22T20:46:52.700Z,3.37
2023-02-22T20:49:38.639Z,2.14
2023-02-22T20:52:24.232Z,3.20
2023-02-22T20:55:11.602Z,3.34
2023-02-22T20:57:57.336Z,2.04
2023-02-22T21:00:43.268Z,3.26
2023-02-22T21:03:35.915Z,3.12
2023-02-22T21:06:22.202Z,3.38
2023-02-22T21:09:13.610Z,3.32
2023-02-22T21:11:58.802Z,2.01
2023-02-22T21:14:44.273Z,2.11
2023-02-22T21:17:30.862Z,3.17
2023-02-22T21:20:21.765Z,3.11
2023-02-22T21:23:12.254Z,3.13
2023-02-22T21:25:57.890Z,3.16
2023-02-22T21:28:51.407Z,2.86
2023-02-22T21:31:38.264Z,2.98
2023-02-22T21:34:23.678Z,3.15
2023-02-22T21:37:09.183Z,3.08
2023-02-22T21:39:54.654Z,2.98
2023-02-22T21:42:40.683Z,3.07
2023-02-22T21:45:27.609Z,3.01
2023-02-22T21:48:13.520Z,2.84
2023-02-22T21:50:59.086Z,2.94
2023-02-22T21:53:47.516Z,1.86
2023-02-22T21:56:37.808Z,2.84
2023-02-22T21:59:23.862Z,2.80
2023-02-22T22:02:10.654Z,2.47
2023-02-22T22:04:56.717Z,1.71
2023-02-22T22:07:44.805Z,1.63
2023-02-22T22:10:37.789Z,2.71
2023-02-22T22:13:25.798Z,1.63
2023-02-22T22:16:14.895Z,2.88
2023-02-22T22:19:00.557Z,2.94
2023-02-22T22:21:53.625Z,1.61
2023-02-22T22:24:45.546Z,2.81
2023-02-22T22:27:31.208Z,2.88
2023-02-22T22:30:17.029Z,2.92
2023-02-22T22:33:06.368Z,2.91
2023-02-22T22:35:51.872Z,1.96
2023-02-22T22:38:40.475Z,3.04
2023-02-22T22:41:28.347Z,2.93
2023-02-22T22:44:16.325Z,3.05
2023-02-22T22:47:05.967Z,2.94
2023-02-22T22:49:52.901Z,2.34
2023-02-22T22:52:41.334Z,1.78
2023-02-22T22:55:27.083Z,2.85
2023-02-22T22:58:13.607Z,2.82
2023-02-22T23:01:02.475Z,2.86
2023-02-22T23:03:59.826Z,2.94
2023-02-22T23:06:50.529Z,2.29
2023-02-22T23:09:38.769Z,2.92
2023-02-22T23:12:31.466Z,3.00
2023-02-22T23:15:18.080Z,1.68
2023-02-22T23:18:03.843Z,2.83
2023-02-22T23:20:55.117Z,2.54
2023-02-22T23:23:41.189Z,2.73
2023-02-22T23:26:26.924Z,1.81
2023-02-22T23:29:13.274Z,2.51
2023-02-22T23:31:58.764Z,2.51
2023-02-22T23:34:44.623Z,2.47
2023-02-22T23:37:38.287Z,1.13
2023-02-22T23:40:25.980Z,2.28
2023-02-22T23:43:12.060Z,1.36
2023-02-22T23:46:01.914Z,2.36
2023-02-22T23:48:52.907Z,2.35
2023-02-22T23:51:44.612Z,2.36
2023-02-22T23:54:36.128Z,1.02
2023-02-22T23:57:21.855Z,2.30
